Time;durP1;ratioP1;P1;durP2;ratioP2;P2;SDS_P1;SDS_P2;PMS_P1;PMS_P2;Temp;Humidity;BMP_temperature;BMP_pressure;BME280_temperature;BME280_humidity;BME280_pressure;Samples;Min_cycle;Max_cycle;Signal;HPM_P1;HPM_P2
2022/09/24 00:00:44;;;;;;;5.75;4.97;;;;;;;10.18;100.00;99322.58;1703125;84;21059;-75
2022/09/24 00:03:11;;;;;;;6.20;4.28;;;;;;;10.18;100.00;99320.70;1702188;84;21082;-75
2022/09/24 00:05:38;;;;;;;4.40;4.05;;;;;;;10.19;100.00;99318.83;1696902;84;21122;-72
2022/09/24 00:08:08;;;;;;;5.03;4.62;;;;;;;10.19;100.00;99326.36;1702011;84;21340;-74
2022/09/24 00:10:38;;;;;;;7.03;3.77;;;;;;;10.19;100.00;99319.64;1695994;84;21618;-73
2022/09/24 00:13:06;;;;;;;5.87;5.20;;;;;;;10.20;100.00;99319.93;1699365;84;21038;-69
2022/09/24 00:15:36;;;;;;;4.78;4.42;;;;;;;10.21;100.00;99316.18;1699480;84;21025;-70
2022/09/24 00:18:04;;;;;;;5.65;5.05;;;;;;;10.20;100.00;99311.87;1699511;84;21153;-72
2022/09/24 00:20:31;;;;;;;4.80;4.40;;;;;;;10.18;100.00;99309.95;1699510;84;21536;-71
2022/09/24 00:23:02;;;;;;;4.45;4.08;;;;;;;10.17;100.00;99311.58;1724054;83;21057;-70
2022/09/24 00:28:14;;;;;;;8.25;6.80;;;;;;;10.16;100.00;99302.70;1696412;84;21063;-69
2022/09/24 00:30:42;;;;;;;7.62;4.47;;;;;;;10.16;100.00;99305.39;1697005;83;21990;-72
2022/09/24 00:33:10;;;;;;;5.62;5.00;;;;;;;10.16;100.00;99310.77;1725629;83;20977;-72
2022/09/24 00:35:40;;;;;;;5.40;4.95;;;;;;;10.16;100.00;99310.77;1710285;83;21023;-70
2022/09/24 00:38:06;;;;;;;8.48;4.87;;;;;;;10.18;100.00;99302.42;1710463;83;21113;-74
2022/09/24 00:40:36;;;;;;;6.17;5.58;;;;;;;10.18;100.00;99309.95;1710501;83;21082;-73
2022/09/24 00:43:24;;;;;;;6.47;4.87;;;;;;;10.16;100.00;99305.92;1713276;83;21147;-72
2022/09/24 00:45:52;;;;;;;6.87;5.75;;;;;;;10.10;100.00;99296.97;1714247;83;21013;-72
2022/09/24 00:48:19;;;;;;;7.30;6.25;;;;;;;10.05;100.00;99303.64;1712365;83;21030;-70
2022/09/24 00:50:45;;;;;;;7.17;5.53;;;;;;;10.03;100.00;99299.86;1710724;83;21089;-77
2022/09/24 00:53:18;;;;;;;4.75;4.35;;;;;;;10.02;100.00;99296.89;1711018;83;21001;-74
2022/09/24 00:55:49;;;;;;;5.35;4.85;;;;;;;10.02;100.00;99300.92;1709862;83;21826;-74
2022/09/24 00:58:15;;;;;;;5.80;5.03;;;;;;;10.02;100.00;99294.20;1709649;83;20989;-73
2022/09/24 01:00:44;;;;;;;5.25;4.75;;;;;;;10.04;100.00;99297.45;1710233;83;21109;-73
2022/09/24 01:03:20;;;;;;;6.58;5.70;;;;;;;10.07;100.00;99293.46;1709303;83;21554;-75
2022/09/24 01:05:47;;;;;;;6.28;5.37;;;;;;;10.08;100.00;99295.88;1694190;82;22212;-74
2022/09/24 01:08:14;;;;;;;10.63;7.37;;;;;;;10.09;100.00;99295.34;1715643;82;21879;-73
2022/09/24 01:11:21;;;;;;;8.30;5.15;;;;;;;10.07;100.00;99289.43;1709865;82;21040;-74
2022/09/24 01:14:06;;;;;;;8.10;5.03;;;;;;;10.06;100.00;99291.30;1710978;83;21029;-74
2022/09/24 01:17:05;;;;;;;8.00;5.65;;;;;;;10.09;100.00;99291.31;1710984;83;21037;-73
2022/09/24 01:20:07;;;;;;;6.40;5.55;;;;;;;10.10;100.00;99292.13;1732747;82;21045;-73
2022/09/24 01:22:43;;;;;;;7.90;6.28;;;;;;;10.11;100.00;99289.19;1710841;83;21945;-74
2022/09/24 01:25:30;;;;;;;6.55;5.60;;;;;;;10.14;100.00;99283.83;1732765;82;21076;-75
2022/09/24 01:28:32;;;;;;;6.65;4.80;;;;;;;10.12;100.00;99286.75;1712419;82;21648;-74
2022/09/24 01:31:16;;;;;;;7.60;5.28;;;;;;;10.12;100.00;99290.00;1672926;82;21076;-73
2022/09/24 01:33:42;;;;;;;6.03;5.22;;;;;;;10.12;100.00;99290.78;1729211;82;21647;-74
2022/09/24 01:36:09;;;;;;;5.58;5.03;;;;;;;10.14;100.00;99291.36;1710998;83;21764;-73
2022/09/24 01:38:43;;;;;;;6.05;5.55;;;;;;;10.17;100.00;99292.20;1710643;82;21113;-75
2022/09/24 01:41:10;;;;;;;10.08;6.08;;;;;;;10.17;100.00;99282.80;1710781;82;21089;-74
2022/09/24 01:43:37;;;;;;;6.37;5.78;;;;;;;10.19;100.00;99290.09;1710651;83;21579;-75
2022/09/24 01:46:05;;;;;;;8.95;6.25;;;;;;;10.17;100.00;99302.17;1710798;83;21512;-74
2022/09/24 01:48:36;;;;;;;5.92;5.12;;;;;;;10.17;100.00;99290.08;1708014;83;21042;-74
2022/09/24 01:51:13;;;;;;;6.97;5.33;;;;;;;10.17;100.00;99294.89;1711087;82;21602;-74
2022/09/24 01:53:49;;;;;;;6.70;4.62;;;;;;;10.16;100.00;99293.83;1710888;83;21123;-73
2022/09/24 01:56:34;;;;;;;5.35;4.95;;;;;;;10.17;100.00;99301.61;1711030;83;21074;-74
2022/09/24 01:59:12;;;;;;;6.42;5.33;;;;;;;10.18;100.00;99284.95;1711005;83;21606;-75
2022/09/24 02:01:46;;;;;;;5.53;5.03;;;;;;;10.19;100.00;99293.30;1711400;82;21180;-75
2022/09/24 02:04:16;;;;;;;6.12;5.53;;;;;;;10.16;100.00;99294.64;1710239;83;21072;-75
2022/09/24 02:07:02;;;;;;;9.13;5.53;;;;;;;10.14;100.00;99295.39;1711137;83;21041;-75
2022/09/24 02:09:39;;;;;;;6.85;6.22;;;;;;;10.13;100.00;99303.16;1710628;83;21085;-75
2022/09/24 02:12:28;;;;;;;6.37;5.72;;;;;;;10.12;100.00;99298.06;1710738;83;21053;-75
2022/09/24 02:14:59;;;;;;;7.30;5.03;;;;;;;10.12;100.00;99294.03;1711316;81;21054;-76
2022/09/24 02:17:28;;;;;;;5.35;4.85;;;;;;;10.13;100.00;99292.94;1710596;83;21017;-75
2022/09/24 02:19:54;;;;;;;5.70;5.20;;;;;;;10.13;100.00;99292.94;1710894;83;20923;-74
2022/09/24 02:22:21;;;;;;;6.42;5.80;;;;;;;10.12;100.00;99296.16;1710564;83;21065;-75
2022/09/24 02:24:50;;;;;;;7.67;5.37;;;;;;;10.10;100.00;99293.47;1710999;83;21113;-75
2022/09/24 02:27:17;;;;;;;5.42;4.92;;;;;;;10.09;100.00;99296.69;1710844;83;21250;-75
2022/09/24 02:29:43;;;;;;;8.23;4.58;;;;;;;10.07;100.00;99298.27;1710990;83;20947;-75
2022/09/24 02:32:14;;;;;;;6.28;5.40;;;;;;;10.06;100.00;99304.73;1710722;83;21038;-75
2022/09/24 02:34:49;;;;;;;12.07;5.37;;;;;;;10.03;100.00;99305.23;1710730;83;21098;-75
2022/09/24 02:37:16;;;;;;;6.05;5.28;;;;;;;10.02;100.00;99301.48;1710871;83;21477;-74
2022/09/24 02:39:43;;;;;;;5.75;5.25;;;;;;;10.03;100.00;99297.17;1710654;83;21914;-75
2022/09/24 02:42:11;;;;;;;6.90;4.92;;;;;;;10.05;100.00;99300.42;1710800;83;21577;-73
2022/09/24 02:44:38;;;;;;;6.20;5.60;;;;;;;10.06;100.00;99308.77;1710167;82;21058;-73
2022/09/24 02:47:06;;;;;;;6.67;5.25;;;;;;;10.06;100.00;99306.61;1710961;83;21049;-74
2022/09/24 02:49:34;;;;;;;8.58;5.55;;;;;;;10.04;100.00;99308.73;1710798;83;21637;-74
2022/09/24 02:52:03;;;;;;;5.12;4.62;;;;;;;10.03;100.00;99303.08;1711095;83;21112;-74
2022/09/24 02:54:30;;;;;;;5.60;5.15;;;;;;;10.02;100.00;99306.85;1710651;82;21073;-73
2022/09/24 02:56:57;;;;;;;6.40;4.40;;;;;;;10.03;100.00;99311.13;1711023;83;21042;-74
2022/09/24 02:59:23;;;;;;;6.40;4.92;;;;;;;10.04;100.00;99300.67;1711535;83;21114;-73
2022/09/24 03:01:50;;;;;;;5.62;5.12;;;;;;;10.07;100.00;99302.86;1710735;83;21650;-73
2022/09/24 03:04:17;;;;;;;4.95;4.55;;;;;;;10.11;100.00;99309.88;1710304;81;21108;-73
2022/09/24 03:06:43;;;;;;;5.58;5.03;;;;;;;10.12;100.00;99304.22;1711051;82;21613;-72
2022/09/24 03:09:11;;;;;;;5.95;5.35;;;;;;;10.13;100.00;99305.84;1711932;83;21050;-74
2022/09/24 03:11:38;;;;;;;5.47;4.97;;;;;;;10.12;100.00;99311.50;1711429;83;21724;-74
2022/09/24 03:14:06;;;;;;;5.33;4.90;;;;;;;10.07;100.00;99314.95;1711676;83;21582;-74
2022/09/24 03:16:32;;;;;;;6.25;5.72;;;;;;;10.04;100.00;99310.08;1685121;83;21131;-73
2022/09/24 03:18:59;;;;;;;5.55;5.05;;;;;;;10.00;100.00;99316.50;1711537;83;21084;-74
2022/09/24 03:21:26;;;;;;;7.28;4.70;;;;;;;9.99;100.00;99316.21;1710745;83;21038;-74
2022/09/24 03:23:52;;;;;;;8.05;5.28;;;;;;;9.98;100.00;99307.06;1710656;83;21085;-73
2022/09/24 03:26:20;;;;;;;10.10;4.55;;;;;;;9.95;100.00;99313.77;1711193;83;21105;-74
2022/09/24 03:28:46;;;;;;;6.40;5.67;;;;;;;9.95;100.00;99311.61;1712025;83;21265;-74
2022/09/24 03:31:13;;;;;;;6.28;5.70;;;;;;;9.94;100.00;99306.77;1711499;83;20959;-73
2022/09/24 03:33:43;;;;;;;7.20;4.85;;;;;;;9.93;100.00;99305.14;1712158;83;21125;-74
2022/09/24 03:36:19;;;;;;;5.33;4.65;;;;;;;9.90;100.00;99308.34;1711683;83;21068;-74
2022/09/24 03:38:47;;;;;;;5.85;4.80;;;;;;;9.90;100.00;99316.41;1711385;83;21653;-73
2022/09/24 03:41:14;;;;;;;5.30;4.80;;;;;;;9.91;100.00;99308.63;1710500;83;22146;-73
2022/09/24 03:43:40;;;;;;;5.85;5.35;;;;;;;9.94;100.00;99314.01;1710655;82;21021;-74
2022/09/24 03:46:07;;;;;;;6.42;5.90;;;;;;;9.95;100.00;99315.11;1711147;82;21070;-74
2022/09/24 03:48:36;;;;;;;7.53;4.65;;;;;;;9.96;100.00;99314.58;1711845;83;21042;-73
2022/09/24 03:51:10;;;;;;;5.22;4.83;;;;;;;9.97;100.00;99318.89;1686379;83;21070;-72
2022/09/24 03:53:37;;;;;;;5.00;4.60;;;;;;;9.92;100.00;99307.57;1711243;83;21265;-76
2022/09/24 03:56:05;;;;;;;7.65;5.95;;;;;;;9.91;100.00;99313.19;1687231;82;21064;-75
2022/09/24 03:58:36;;;;;;;6.05;5.45;;;;;;;9.91;100.00;99314.53;1742260;82;20989;-76
2022/09/24 04:01:03;;;;;;;6.40;5.78;;;;;;;9.93;100.00;99317.75;1742185;82;21105;-77
2022/09/24 04:03:29;;;;;;;5.85;5.10;;;;;;;9.91;100.00;99318.03;1735825;82;21033;-76
2022/09/24 04:05:57;;;;;;;5.80;5.35;;;;;;;9.90;100.00;99323.12;1710789;82;21137;-73
2022/09/24 04:08:24;;;;;;;5.33;4.83;;;;;;;9.89;100.00;99316.12;1710663;83;21057;-75
2022/09/24 04:10:54;;;;;;;6.05;5.40;;;;;;;9.88;100.00;99327.92;1711480;83;21059;-74
2022/09/24 04:13:20;;;;;;;6.67;4.90;;;;;;;9.87;100.00;99315.58;1720776;82;21099;-74
2022/09/24 04:15:49;;;;;;;5.90;5.10;;;;;;;9.86;100.00;99313.14;1685546;84;21073;-75
2022/09/24 04:18:15;;;;;;;7.75;5.03;;;;;;;9.84;100.00;99313.91;1685344;83;22109;-75
2022/09/24 04:20:42;;;;;;;6.15;4.92;;;;;;;9.83;100.00;99314.44;1691201;83;21652;-75
2022/09/24 04:23:09;;;;;;;4.80;4.40;;;;;;;9.82;100.00;99315.53;1717957;83;21473;-74
2022/09/24 04:25:36;;;;;;;5.92;5.35;;;;;;;9.82;100.00;99314.71;1702858;83;21188;-75
2022/09/24 04:28:05;;;;;;;5.92;5.37;;;;;;;9.84;100.00;99315.25;1709022;82;20966;-74
2022/09/24 04:30:32;;;;;;;4.95;4.55;;;;;;;9.87;100.00;99314.77;1711790;83;21138;-74
2022/09/24 04:33:01;;;;;;;5.90;5.30;;;;;;;9.87;100.00;99318.27;1702073;84;21023;-74
2022/09/24 04:35:29;;;;;;;4.92;4.47;;;;;;;9.84;100.00;99318.75;1701718;84;21121;-75
2022/09/24 04:37:56;;;;;;;4.37;3.95;;;;;;;9.82;100.00;99316.88;1706495;83;21058;-76
2022/09/24 04:40:22;;;;;;;6.00;4.70;;;;;;;9.82;100.00;99311.50;1701804;83;21431;-74
2022/09/24 04:42:49;;;;;;;4.83;4.42;;;;;;;9.84;100.00;99317.94;1700594;84;21500;-74
2022/09/24 04:45:18;;;;;;;10.08;4.58;;;;;;;9.83;100.00;99319.03;1700341;83;21002;-74
2022/09/24 04:47:51;;;;;;;8.63;4.17;;;;;;;9.85;100.00;99312.32;1701409;83;21034;-72
2022/09/24 04:50:16;;;;;;;5.53;5.03;;;;;;;9.90;100.00;99311.56;1707830;83;21126;-75
2022/09/24 04:52:43;;;;;;;5.92;5.37;;;;;;;9.93;100.00;99311.03;1701254;83;21586;-75
2022/09/24 04:55:09;;;;;;;4.90;4.50;;;;;;;9.95;100.00;99311.08;1700276;84;21814;-74
2022/09/24 04:57:36;;;;;;;6.00;5.50;;;;;;;9.95;100.00;99321.02;1700511;83;21454;-74
2022/09/24 05:00:08;;;;;;;5.95;4.92;;;;;;;9.94;100.00;99318.85;1705977;83;21082;-72
2022/09/24 05:02:34;;;;;;;5.22;4.83;;;;;;;9.95;100.00;99319.67;1700420;84;21077;-74
2022/09/24 05:05:01;;;;;;;4.67;4.28;;;;;;;9.97;100.00;99318.36;1678723;84;21101;-73
2022/09/24 05:07:28;;;;;;;6.12;4.58;;;;;;;9.96;100.00;99314.05;1701629;83;21352;-75
2022/09/24 05:09:55;;;;;;;9.75;6.03;;;;;;;9.99;100.00;99322.11;1701276;83;21042;-74
2022/09/24 05:12:22;;;;;;;6.00;4.92;;;;;;;9.98;100.00;99322.65;1706479;82;21014;-73
2022/09/24 05:14:49;;;;;;;4.95;4.33;;;;;;;10.00;100.00;99310.31;1711069;83;21050;-74
2022/09/24 05:17:15;;;;;;;5.70;5.20;;;;;;;10.01;100.00;99319.47;1711449;83;21065;-75
2022/09/24 05:19:42;;;;;;;4.67;4.33;;;;;;;10.01;100.00;99326.19;1730890;82;21236;-74
2022/09/24 05:22:08;;;;;;;5.97;5.47;;;;;;;10.00;100.00;99321.88;1742726;82;21067;-73
2022/09/24 05:24:35;;;;;;;4.95;4.55;;;;;;;9.99;100.00;99327.48;1740162;82;21020;-74
2022/09/24 05:27:09;;;;;;;5.90;5.42;;;;;;;9.99;100.00;99328.30;1711306;83;21511;-75
2022/09/24 05:29:38;;;;;;;8.63;5.62;;;;;;;10.02;100.00;99324.31;1722679;82;21001;-75
2022/09/24 05:32:12;;;;;;;6.83;5.03;;;;;;;10.05;100.00;99335.36;1742648;81;21191;-72
2022/09/24 05:34:40;;;;;;;4.95;4.55;;;;;;;10.04;100.00;99341.78;1742726;82;21708;-73
2022/09/24 05:37:06;;;;;;;5.97;5.20;;;;;;;10.03;100.00;99324.04;1743261;82;21050;-76
2022/09/24 05:39:33;;;;;;;5.80;5.25;;;;;;;10.03;100.00;99329.94;1727309;82;21090;-72
2022/09/24 05:42:02;;;;;;;5.97;4.80;;;;;;;10.03;100.00;99328.59;1711817;83;21077;-71
2022/09/24 05:44:30;;;;;;;6.12;5.20;;;;;;;10.05;100.00;99325.95;1711717;82;21073;-73
2022/09/24 05:46:57;;;;;;;5.40;4.83;;;;;;;10.06;100.00;99326.77;1715811;82;21105;-74
2022/09/24 05:49:23;;;;;;;5.85;4.58;;;;;;;10.08;100.00;99338.86;1731825;82;21133;-72
2022/09/24 05:51:50;;;;;;;6.55;5.33;;;;;;;10.11;100.00;99345.62;1714424;83;21062;-72
2022/09/24 05:54:17;;;;;;;7.37;5.22;;;;;;;10.11;100.00;99328.16;1712248;83;21129;-73
2022/09/24 05:56:45;;;;;;;5.45;4.90;;;;;;;10.11;100.00;99329.50;1712198;83;21245;-73
2022/09/24 05:59:15;;;;;;;4.55;4.15;;;;;;;10.11;100.00;99329.50;1716219;82;21304;-71
2022/09/24 06:01:41;;;;;;;4.22;3.62;;;;;;;10.11;100.00;99324.66;1711015;83;21092;-73
2022/09/24 06:04:11;;;;;;;5.42;4.97;;;;;;;10.10;100.00;99337.27;1711890;82;21015;-74
2022/09/24 06:06:38;;;;;;;4.67;4.28;;;;;;;10.11;100.00;99332.72;1711691;83;21113;-75
2022/09/24 06:09:08;;;;;;;4.60;4.20;;;;;;;10.14;100.00;99327.63;1724038;82;21673;-74
2022/09/24 06:11:35;;;;;;;5.90;5.40;;;;;;;10.18;100.00;99329.30;1742718;81;21041;-74
2022/09/24 06:14:07;;;;;;;5.22;4.45;;;;;;;10.21;100.00;99332.84;1742910;81;21057;-76
2022/09/24 06:16:35;;;;;;;4.35;4.05;;;;;;;10.22;100.00;99333.91;1742040;82;21086;-75
2022/09/24 06:19:04;;;;;;;;;;;;;;;10.22;100.00;99339.81;1728356;81;21133;-75
2022/09/24 06:21:31;;;;;;;4.03;3.72;;;;;;;10.21;100.00;99344.41;1685915;83;21130;-74
2022/09/24 06:23:58;;;;;;;6.92;4.53;;;;;;;10.21;100.00;99344.93;1710746;82;21042;-75
2022/09/24 06:26:25;;;;;;;5.67;4.15;;;;;;;10.23;100.00;99341.44;1711057;83;20994;-73
2022/09/24 06:28:52;;;;;;;5.45;4.78;;;;;;;10.25;100.00;99348.19;1712137;82;21687;-74
2022/09/24 06:31:21;;;;;;;6.55;5.95;;;;;;;10.27;100.00;99346.57;1711848;82;21035;-74
2022/09/24 06:33:49;;;;;;;7.62;4.53;;;;;;;10.30;100.00;99348.23;1711745;83;21971;-75
2022/09/24 06:36:15;;;;;;;5.33;4.90;;;;;;;10.34;100.00;99348.52;1712060;83;21006;-74
2022/09/24 06:38:44;;;;;;;4.10;3.80;;;;;;;10.35;100.00;99355.53;1719659;82;20978;-71
2022/09/24 06:41:10;;;;;;;5.28;3.90;;;;;;;10.33;100.00;99363.84;1728838;82;21105;-74
2022/09/24 06:43:38;;;;;;;5.58;3.65;;;;;;;10.33;100.00;99358.46;1711318;82;21120;-73
2022/09/24 06:46:05;;;;;;;3.67;3.33;;;;;;;10.34;100.00;99356.59;1711122;83;21340;-73
2022/09/24 06:48:36;;;;;;;6.08;4.12;;;;;;;10.38;100.00;99368.45;1731949;82;21001;-76
2022/09/24 06:51:05;;;;;;;5.95;3.85;;;;;;;10.39;100.00;99370.89;1732486;82;21026;-73
2022/09/24 06:53:31;;;;;;;4.95;3.50;;;;;;;10.43;100.00;99385.44;1742583;82;21602;-76
2022/09/24 06:56:02;;;;;;;3.80;3.47;;;;;;;10.45;100.00;99373.88;1742669;82;21049;-75
2022/09/24 06:58:28;;;;;;;3.77;3.47;;;;;;;10.47;100.00;99362.34;1733877;82;21113;-73
2022/09/24 07:01:00;;;;;;;5.12;3.08;;;;;;;10.51;100.00;99366.66;1685459;83;21320;-74
2022/09/24 07:03:31;;;;;;;3.42;2.87;;;;;;;10.56;100.00;99373.95;1711816;83;21088;-73
2022/09/24 07:06:01;;;;;;;4.62;3.65;;;;;;;10.61;99.85;99363.23;1728937;82;21037;-76
2022/09/24 07:08:29;;;;;;;3.50;3.20;;;;;;;10.66;99.70;99364.62;1712902;82;21054;-76
2022/09/24 07:10:56;;;;;;;5.72;3.47;;;;;;;10.71;99.28;99361.44;1711836;83;21154;-77
2022/09/24 07:13:22;;;;;;;4.03;3.37;;;;;;;10.74;98.46;99364.95;1688807;82;21114;-75
2022/09/24 07:15:52;;;;;;;3.55;3.25;;;;;;;10.79;98.21;99374.96;1701518;84;21511;-74
2022/09/24 07:18:20;;;;;;;5.47;2.90;;;;;;;10.83;97.57;99370.68;1736934;81;21530;-74
2022/09/24 07:20:53;;;;;;;3.55;3.25;;;;;;;10.86;97.37;99364.77;1729180;81;20991;-78
2022/09/24 07:23:20;;;;;;;;;;;;;;;10.93;96.81;99376.13;1731927;83;22025;-79
2022/09/24 07:25:47;;;;;;;3.60;3.30;;;;;;;10.99;95.90;99376.94;1729236;83;20635;-72
2022/09/24 07:28:17;;;;;;;3.35;3.12;;;;;;;11.02;95.65;99370.53;1729041;81;21036;-76
2022/09/24 07:30:45;;;;;;;3.00;2.80;;;;;;;11.08;95.24;99372.72;1727496;83;21628;-75
2022/09/24 07:33:12;;;;;;;6.85;3.00;;;;;;;11.12;94.67;99377.85;1727570;83;21100;-74
2022/09/24 07:35:39;;;;;;;9.08;2.90;;;;;;;11.19;94.58;99377.88;1727815;81;21331;-76
2022/09/24 07:38:10;;;;;;;3.12;2.90;;;;;;;11.27;94.13;99384.10;1729248;81;21075;-74
2022/09/24 07:40:37;;;;;;;7.20;5.62;;;;;;;11.33;92.35;99384.94;1727674;83;21067;-74
2022/09/24 07:43:05;;;;;;;3.35;3.05;;;;;;;11.35;90.57;99384.16;1734264;81;22197;-75
2022/09/24 07:45:32;;;;;;;3.95;2.85;;;;;;;11.39;91.00;99389.28;1728014;83;22204;-75
2022/09/24 07:48:04;;;;;;;3.62;2.58;;;;;;;11.41;90.83;99377.73;1748422;81;21148;-74
2022/09/24 07:50:37;;;;;;;2.62;2.20;;;;;;;11.44;90.64;99399.27;1728761;81;21576;-74
2022/09/24 07:53:05;;;;;;;4.37;3.10;;;;;;;11.42;88.95;99401.41;1729972;81;21501;-73
2022/09/24 07:55:38;;;;;;;2.83;2.45;;;;;;;11.42;88.75;99398.17;1729703;81;20991;-73
2022/09/24 07:58:03;;;;;;;3.67;2.55;;;;;;;11.44;88.66;99394.70;1731070;81;21041;-76
2022/09/24 08:00:32;;;;;;;2.65;2.45;;;;;;;11.48;88.67;99401.70;1756362;81;20965;-75
2022/09/24 08:02:58;;;;;;;2.85;2.60;;;;;;;11.53;88.75;99413.85;1744053;81;20975;-77
2022/09/24 08:05:25;;;;;;;4.90;2.05;;;;;;;11.54;87.58;99408.21;1706623;83;21042;-78
2022/09/24 08:07:54;;;;;;;3.25;2.75;;;;;;;11.55;86.72;99421.14;1728153;81;21165;-77
2022/09/24 08:10:25;;;;;;;2.90;2.67;;;;;;;11.58;86.93;99409.30;1715976;81;21564;-76
2022/09/24 08:12:52;;;;;;;3.20;2.90;;;;;;;11.63;87.17;99413.36;1723202;81;21524;-77
2022/09/24 08:15:21;;;;;;;3.67;2.50;;;;;;;11.68;86.74;99416.08;1666591;84;21199;-74
2022/09/24 08:17:48;;;;;;;3.58;3.22;;;;;;;11.71;86.69;99419.58;1686953;84;20990;-73
2022/09/24 08:20:14;;;;;;;2.80;2.47;;;;;;;11.69;86.01;99425.79;1690773;84;21587;-75
2022/09/24 08:22:42;;;;;;;4.10;2.52;;;;;;;11.65;86.04;99438.70;1683432;84;21096;-74
2022/09/24 08:25:11;;;;;;;4.12;3.15;;;;;;;11.63;85.97;99431.41;1714387;82;22098;-76
2022/09/24 08:27:38;;;;;;;3.40;3.10;;;;;;;11.63;86.22;99440.30;1674125;85;21070;-74
2022/09/24 08:30:06;;;;;;;2.95;2.72;;;;;;;11.62;85.87;99427.91;1714036;83;21118;-74
2022/09/24 08:32:33;;;;;;;4.28;2.85;;;;;;;11.58;85.42;99458.31;1710771;83;21566;-74
2022/09/24 08:35:00;;;;;;;8.00;2.95;;;;;;;11.53;85.08;99436.74;1722841;82;21038;-74
2022/09/24 08:37:27;;;;;;;2.67;2.47;;;;;;;11.48;85.32;99432.14;1721978;82;21529;-73
2022/09/24 08:39:56;;;;;;;2.92;2.45;;;;;;;11.46;84.96;99439.69;1705196;82;21540;-73
2022/09/24 08:42:37;;;;;;;2.85;2.65;;;;;;;11.48;85.43;99421.91;1716095;83;21082;-73
2022/09/24 08:48:02;;;;;;;2.60;2.40;;;;;;;11.59;85.48;99437.86;1676443;85;21079;-76
2022/09/24 08:50:30;;;;;;;3.20;2.62;;;;;;;11.63;85.54;99432.75;1703405;82;21790;-74
2022/09/24 08:53:22;;;;;;;2.00;1.90;;;;;;;11.67;85.37;99431.97;1685291;84;21000;-73
2022/09/24 08:55:51;;;;;;;2.80;2.27;;;;;;;11.72;85.03;99427.13;1688009;83;21015;-74
2022/09/24 08:59:02;;;;;;;5.20;2.70;;;;;;;11.76;83.92;99430.41;1689832;84;21057;-76
2022/09/24 09:01:53;;;;;;;2.60;2.40;;;;;;;11.80;82.86;99428.80;1682374;83;21096;-75
2022/09/24 09:04:27;;;;;;;3.22;2.72;;;;;;;11.80;81.46;99433.38;1704742;82;21188;-72
2022/09/24 09:07:19;;;;;;;3.30;2.52;;;;;;;11.82;81.18;99427.73;1705535;84;21092;-72
2022/09/24 09:09:57;;;;;;;2.58;2.22;;;;;;;11.84;80.57;99425.60;1676395;84;21060;-77
2022/09/24 09:12:44;;;;;;;1.95;1.85;;;;;;;11.86;80.27;99428.83;1704864;81;21038;-73
2022/09/24 09:15:17;;;;;;;2.37;2.17;;;;;;;11.91;79.56;99423.45;1693980;83;21346;-72
2022/09/24 09:17:55;;;;;;;2.20;2.10;;;;;;;11.96;78.29;99439.11;1728896;81;21066;-73
2022/09/24 09:20:36;;;;;;;2.40;2.20;;;;;;;11.99;78.51;99425.09;1728717;83;20997;-73
2022/09/24 09:23:09;;;;;;;2.27;2.17;;;;;;;12.03;78.42;99425.39;1729132;83;21005;-75
2022/09/24 09:25:36;;;;;;;2.40;2.20;;;;;;;12.07;78.54;99429.17;1731684;81;21170;-75
2022/09/24 09:28:15;;;;;;;2.50;2.30;;;;;;;12.11;76.61;99442.39;1719480;81;20997;-76
2022/09/24 09:31:17;;;;;;;3.35;1.90;;;;;;;12.14;76.05;99424.32;1743258;81;21298;-77
2022/09/24 09:34:04;;;;;;;2.52;2.33;;;;;;;12.17;75.51;99433.24;1705034;83;21054;-73
2022/09/24 09:37:21;;;;;;;3.20;2.22;;;;;;;12.18;74.75;99442.95;1727138;83;20987;-76
2022/09/24 09:40:20;;;;;;;1.65;1.55;;;;;;;12.19;74.43;99448.59;1728200;81;21135;-73
2022/09/24 09:42:47;;;;;;;2.33;2.12;;;;;;;12.20;74.04;99438.91;1722308;83;21345;-72
2022/09/24 09:45:41;;;;;;;3.12;2.83;;;;;;;12.24;74.27;99425.16;1721336;82;21051;-73
2022/09/24 09:48:11;;;;;;;2.33;2.15;;;;;;;12.28;74.69;99444.30;1714446;81;21330;-75
2022/09/24 09:50:50;;;;;;;3.42;1.98;;;;;;;12.31;74.71;99424.09;1730112;81;21265;-74
2022/09/24 09:53:26;;;;;;;2.37;2.15;;;;;;;12.29;75.15;99424.89;1700080;84;20947;-71
2022/09/24 09:55:56;;;;;;;2.92;2.00;;;;;;;12.27;75.79;99420.32;1704594;81;21628;-74
2022/09/24 09:58:31;;;;;;;2.80;2.60;;;;;;;12.22;76.46;99423.28;1726772;83;21271;-73
2022/09/24 10:01:09;;;;;;;2.10;1.90;;;;;;;12.20;77.31;99432.70;1701328;84;21095;-73
2022/09/24 10:03:51;;;;;;;2.87;1.85;;;;;;;12.18;77.82;99432.17;1701286;84;21060;-73
2022/09/24 10:06:27;;;;;;;2.15;2.05;;;;;;;12.13;77.02;99448.34;1733315;81;21051;-74
2022/09/24 10:09:15;;;;;;;2.47;2.20;;;;;;;12.08;76.40;99422.71;1758159;81;21075;-74
2022/09/24 10:11:41;;;;;;;2.30;2.10;;;;;;;12.04;76.92;99417.02;1758586;81;21132;-72
2022/09/24 10:14:11;;;;;;;3.72;2.40;;;;;;;12.08;77.57;99431.61;1740487;81;21007;-72
2022/09/24 10:16:41;;;;;;;3.72;2.75;;;;;;;12.08;76.62;99423.52;1751387;81;21098;-74
2022/09/24 10:19:18;;;;;;;3.12;2.80;;;;;;;12.07;76.26;99418.39;1744298;81;21537;-75
2022/09/24 10:21:45;;;;;;;3.55;3.20;;;;;;;12.05;76.13;99430.77;1732064;82;21721;-77
2022/09/24 10:24:20;;;;;;;3.05;2.75;;;;;;;12.08;76.23;99428.10;1741076;82;21233;-74
2022/09/24 10:26:46;;;;;;;2.62;2.02;;;;;;;12.14;75.48;99422.97;1712490;82;21080;-75
2022/09/24 10:32:22;;;;;;;3.47;2.70;;;;;;;12.42;74.34;99429.78;1693649;82;21583;-74
2022/09/24 10:35:04;;;;;;;4.20;2.55;;;;;;;12.55;73.54;99426.55;1710934;83;21046;-73
2022/09/24 10:37:31;;;;;;;4.92;3.15;;;;;;;12.63;73.70;99428.17;1687941;83;21258;-72
2022/09/24 10:40:01;;;;;;;3.83;2.55;;;;;;;12.65;73.40;99440.05;1711736;82;21045;-76
2022/09/24 10:42:29;;;;;;;3.25;2.95;;;;;;;12.65;73.65;99435.47;1739985;82;20977;-72
2022/09/24 10:44:59;;;;;;;2.90;2.70;;;;;;;12.66;73.06;99440.33;1740949;82;21077;-74
2022/09/24 10:47:47;;;;;;;2.62;2.42;;;;;;;12.64;73.28;99423.58;1740473;82;21029;-73
2022/09/24 10:50:46;;;;;;;3.08;2.77;;;;;;;12.66;73.49;99423.57;1744930;82;21365;-73
2022/09/24 10:53:20;;;;;;;2.72;2.52;;;;;;;12.75;73.14;99429.80;1743907;82;20954;-72
2022/09/24 10:56:05;;;;;;;6.10;2.77;;;;;;;12.83;73.71;99419.27;1739972;82;21024;-75
2022/09/24 10:59:01;;;;;;;2.67;2.47;;;;;;;12.91;73.68;99420.05;1695742;82;21590;-72
2022/09/24 11:01:53;;;;;;;2.70;2.50;;;;;;;13.00;72.16;99436.51;1650895;83;21055;-74
2022/09/24 11:04:46;;;;;;;3.20;2.90;;;;;;;12.97;71.18;99423.56;1712514;83;21049;-73
2022/09/24 11:08:03;;;;;;;2.55;2.35;;;;;;;12.93;71.74;99461.64;1729555;82;20986;-72
2022/09/24 11:10:53;;;;;;;2.52;2.33;;;;;;;12.85;71.98;99450.85;1740383;82;21642;-75
2022/09/24 11:13:28;;;;;;;2.73;2.53;;;;;;;12.91;71.45;99432.73;1739201;82;21578;-77
2022/09/24 11:16:13;;;;;;;2.40;2.30;;;;;;;12.99;71.00;99449.22;1727677;82;21086;-76
2022/09/24 11:19:39;;;;;;;2.83;2.62;;;;;;;13.07;69.87;99418.97;1712419;83;21050;-75
2022/09/24 11:22:15;;;;;;;3.30;3.10;;;;;;;13.17;69.65;99420.88;1712867;83;21105;-76
2022/09/24 11:24:56;;;;;;;3.17;2.60;;;;;;;13.22;68.82;99433.02;1712462;83;20986;-75
2022/09/24 11:28:01;;;;;;;5.12;3.05;;;;;;;13.25;68.40;99421.66;1684484;85;21020;-75
2022/09/24 11:30:56;;;;;;;2.65;2.35;;;;;;;13.36;68.85;99419.20;1684378;85;21649;-74
2022/09/24 11:36:39;;;;;;;2.80;2.50;;;;;;;13.74;67.71;99432.58;1846953;76;22711;-76
2022/09/24 11:39:45;;;;;;;3.05;2.77;;;;;;;13.70;66.59;99451.79;1820250;78;20990;-73
2022/09/24 11:42:43;;;;;;;6.10;2.77;;;;;;;13.71;66.30;99439.09;1820019;78;21012;-74
2022/09/24 11:45:40;;;;;;;2.77;2.58;;;;;;;13.64;65.84;99429.91;1793457;78;21050;-77
2022/09/24 11:48:40;;;;;;;2.50;2.30;;;;;;;13.57;65.92;99429.95;1765439;80;20971;-75
2022/09/24 11:51:36;;;;;;;2.92;2.72;;;;;;;13.47;66.28;99428.91;1818034;78;20943;-75
2022/09/24 11:54:28;;;;;;;3.00;2.80;;;;;;;13.44;66.20;99426.73;1803312;79;21018;-75
2022/09/24 11:57:09;;;;;;;3.20;2.98;;;;;;;13.51;66.80;99421.87;1815888;78;21045;-78
2022/09/24 11:59:58;;;;;;;2.50;2.30;;;;;;;13.57;66.40;99424.55;1790886;77;21538;-75
2022/09/24 12:02:29;;;;;;;3.15;2.85;;;;;;;13.57;66.05;99420.50;1817318;78;20912;-75
2022/09/24 12:05:13;;;;;;;2.72;2.52;;;;;;;13.53;66.70;99431.02;1819866;78;20990;-73
2022/09/24 12:08:26;;;;;;;2.65;2.45;;;;;;;13.42;66.29;99426.75;1787716;80;20923;-75